createdAt,value
2023-04-10T00:00:15.632Z,101143.41
2023-04-10T00:03:18.059Z,101138.22
2023-04-10T00:06:20.368Z,101128.44
2023-04-10T00:09:22.552Z,101130.50
2023-04-10T00:15:47.663Z,101122.88
2023-04-10T00:18:49.089Z,101129.88
2023-04-10T00:21:51.000Z,101130.84
2023-04-10T00:24:52.814Z,101130.91
2023-04-10T00:27:54.751Z,101136.13
2023-04-10T00:30:56.513Z,101136.19
2023-04-10T00:33:58.351Z,101138.88
2023-04-10T00:37:01.054Z,101141.53
2023-04-10T00:40:02.935Z,101138.06
2023-04-10T00:43:04.757Z,101146.03
2023-04-10T00:46:09.615Z,101147.91
2023-04-10T00:49:11.746Z,101138.22
2023-04-10T00:52:13.617Z,101141.84
2023-04-10T00:55:16.053Z,101140.09
2023-04-10T00:58:18.113Z,101141.78
2023-04-10T01:01:20.738Z,101136.59
2023-04-10T01:04:28.991Z,101141.88
2023-04-10T01:07:49.917Z,101136.63
2023-04-10T01:11:11.162Z,101146.34
2023-04-10T01:14:19.550Z,101134.13
2023-04-10T01:18:06.223Z,101128.91
2023-04-10T01:21:11.710Z,101131.63
2023-04-10T01:25:04.706Z,101140.41
2023-04-10T01:28:19.287Z,101136.88
2023-04-10T01:31:30.123Z,101141.25
2023-04-10T01:34:56.812Z,101134.25
2023-04-10T01:38:05.339Z,101143.09
2023-04-10T01:41:08.010Z,101144.94
2023-04-10T01:44:14.715Z,101142.47
2023-04-10T01:47:18.267Z,101153.09
2023-04-10T01:50:24.206Z,101151.44
2023-04-10T01:53:26.908Z,101146.22
2023-04-10T01:56:28.798Z,101148.03
2023-04-10T01:59:31.275Z,101143.69
2023-04-10T02:02:34.334Z,101144.59
2023-04-10T02:06:02.334Z,101146.41
2023-04-10T02:09:31.571Z,101150.00
2023-04-10T02:12:41.576Z,101141.38
2023-04-10T02:15:47.216Z,101141.41
2023-04-10T02:18:50.560Z,101131.03
2023-04-10T02:21:53.516Z,101131.03
2023-04-10T02:24:56.775Z,101130.16
2023-04-10T02:27:59.042Z,101126.69
2023-04-10T02:31:00.623Z,101124.13
2023-04-10T02:34:02.538Z,101122.38
2023-04-10T02:37:04.351Z,101111.78
2023-04-10T02:40:06.841Z,101120.56
2023-04-10T02:43:18.161Z,101115.25
2023-04-10T02:46:21.119Z,101105.66
2023-04-10T02:49:22.932Z,101113.53
2023-04-10T02:52:25.984Z,101115.31
2023-04-10T02:55:28.895Z,101110.09
2023-04-10T02:58:51.819Z,101111.91
2023-04-10T03:01:53.971Z,101109.41
2023-04-10T03:04:55.988Z,101104.13
2023-04-10T03:07:58.233Z,101104.16
2023-04-10T03:11:00.465Z,101110.28
2023-04-10T03:14:04.047Z,101097.19
2023-04-10T03:17:05.665Z,101105.94
2023-04-10T03:20:10.293Z,101099.91
2023-04-10T03:23:12.204Z,101102.44
2023-04-10T03:26:14.013Z,101094.56
2023-04-10T03:29:18.861Z,101089.41
2023-04-10T03:32:20.818Z,101089.41
2023-04-10T03:35:46.518Z,101084.06
2023-04-10T03:38:48.376Z,101072.78
2023-04-10T03:41:50.193Z,101068.34
2023-04-10T03:44:52.728Z,101062.19
2023-04-10T03:47:55.905Z,101054.41
2023-04-10T03:50:58.599Z,101060.59
2023-04-10T03:54:00.180Z,101059.66
2023-04-10T03:57:02.836Z,101060.59
2023-04-10T04:00:05.827Z,101052.66
2023-04-10T04:03:21.810Z,101059.78
2023-04-10T04:06:23.818Z,101055.53
2023-04-10T04:09:47.887Z,101065.22
2023-04-10T04:13:08.166Z,101063.47
2023-04-10T04:16:27.359Z,101067.84
2023-04-10T04:19:52.383Z,101069.66
2023-04-10T04:23:06.392Z,101072.31
2023-04-10T04:26:36.789Z,101056.53
2023-04-10T04:29:58.879Z,101065.38
2023-04-10T04:33:18.362Z,101070.59
2023-04-10T04:36:52.352Z,101061.91
2023-04-10T04:40:00.144Z,101068.03
2023-04-10T04:43:21.513Z,101069.78
2023-04-10T04:46:36.674Z,101074.16
2023-04-10T04:50:06.029Z,101074.16
2023-04-10T04:53:25.806Z,101070.66
2023-04-10T04:57:07.074Z,101078.47
2023-04-10T05:00:31.031Z,101079.28
2023-04-10T05:03:39.848Z,101075.78
2023-04-10T05:07:04.831Z,101079.16
2023-04-10T05:10:13.763Z,101082.59
2023-04-10T05:13:44.092Z,101084.22
2023-04-10T05:17:09.799Z,101082.47
2023-04-10T05:20:21.730Z,101078.88
2023-04-10T05:23:46.436Z,101085.84
2023-04-10T05:27:12.650Z,101086.69
2023-04-10T05:30:38.363Z,101083.19
2023-04-10T05:33:58.588Z,101085.84
2023-04-10T05:37:12.939Z,101069.13
2023-04-10T05:40:21.316Z,101078.69
2023-04-10T05:43:45.656Z,101081.22
2023-04-10T05:46:59.054Z,101074.22
2023-04-10T05:50:18.221Z,101082.03
2023-04-10T05:53:34.173Z,101083.78
2023-04-10T05:57:02.234Z,101092.50
2023-04-10T06:00:19.535Z,101087.28
2023-04-10T06:03:44.251Z,101089.88
2023-04-10T06:06:46.917Z,101087.09
2023-04-10T06:09:48.319Z,101079.97
2023-04-10T06:12:50.134Z,101091.16
2023-04-10T06:15:52.082Z,101090.16
2023-04-10T06:18:54.590Z,101082.91
2023-04-10T06:21:56.623Z,101084.63
2023-04-10T06:24:58.930Z,101083.50
2023-04-10T06:28:01.247Z,101074.72
2023-04-10T06:31:04.169Z,101068.44
2023-04-10T06:34:09.654Z,101069.06
2023-04-10T06:37:27.629Z,101071.63
2023-04-10T06:40:30.840Z,101065.16
2023-04-10T06:43:34.639Z,101062.38
2023-04-10T06:46:36.856Z,101060.38
2023-04-10T06:49:38.655Z,101072.63
2023-04-10T06:52:40.421Z,101066.22
2023-04-10T06:55:41.849Z,101059.06
2023-04-10T06:58:43.216Z,101059.88
2023-04-10T07:01:45.002Z,101061.78
2023-04-10T07:04:49.879Z,101053.66
2023-04-10T07:07:52.058Z,101064.56
2023-04-10T07:10:53.822Z,101061.78
2023-04-10T07:13:58.331Z,101059.63
2023-04-10T07:17:00.166Z,101064.81
2023-04-10T07:20:02.296Z,101059.13
2023-04-10T07:23:04.292Z,101063.16
2023-04-10T07:26:06.526Z,101056.84
2023-04-10T07:29:09.399Z,101059.84
2023-04-10T07:32:11.370Z,101054.41
2023-04-10T07:35:13.320Z,101060.44
2023-04-10T07:38:15.134Z,101059.22
2023-04-10T07:41:16.965Z,101056.91
2023-04-10T07:44:20.224Z,101048.34
2023-04-10T07:47:21.644Z,101058.69
2023-04-10T07:50:26.136Z,101048.44
2023-04-10T07:53:28.082Z,101044.63
2023-04-10T07:56:31.683Z,101049.84
2023-04-10T07:59:33.096Z,101047.22
2023-04-10T08:02:38.532Z,101038.38
2023-04-10T08:05:40.434Z,101044.00
2023-04-10T08:08:42.637Z,101037.28
2023-04-10T08:11:44.627Z,101036.94
2023-04-10T08:14:46.009Z,101032.72
2023-04-10T08:17:51.002Z,101047.69
2023-04-10T08:20:52.950Z,101034.13
2023-04-10T08:23:56.939Z,101043.59
2023-04-10T08:26:58.824Z,101034.41
2023-04-10T08:30:00.597Z,101035.28
2023-04-10T08:33:02.467Z,101025.28
2023-04-10T08:36:27.023Z,101028.88
2023-04-10T08:39:28.859Z,101024.22
2023-04-10T08:42:32.207Z,101024.09
2023-04-10T08:45:35.323Z,101034.16
2023-04-10T08:48:53.064Z,101022.72
2023-04-10T08:52:02.161Z,101014.53
2023-04-10T08:55:08.004Z,101007.63
2023-04-10T08:58:11.362Z,100993.06
2023-04-10T09:01:13.782Z,100993.75
2023-04-10T09:04:19.718Z,100988.09
2023-04-10T09:07:25.824Z,100991.97
2023-04-10T09:10:30.141Z,100987.28
2023-04-10T09:13:54.269Z,100985.19
2023-04-10T09:17:19.275Z,100976.91
2023-04-10T09:20:23.077Z,100974.13
2023-04-10T09:23:25.028Z,100973.00
2023-04-10T09:26:31.130Z,100967.06
2023-04-10T09:29:49.931Z,100962.25
2023-04-10T09:32:51.811Z,100964.22
2023-04-10T09:35:57.220Z,100952.97
2023-04-10T09:38:59.022Z,100949.72
2023-04-10T09:42:00.923Z,100941.25
2023-04-10T09:45:04.470Z,100934.34
2023-04-10T09:48:08.210Z,100941.81
2023-04-10T09:51:29.770Z,100930.59
2023-04-10T09:54:38.374Z,100920.31
2023-04-10T09:57:39.902Z,100914.16
2023-04-10T10:00:44.371Z,100911.69
2023-04-10T10:03:46.668Z,100896.22
2023-04-10T10:06:49.093Z,100905.63
2023-04-10T10:09:52.066Z,100896.00
2023-04-10T10:13:01.672Z,100887.56
2023-04-10T10:16:06.702Z,100888.28
2023-04-10T10:19:41.118Z,100875.72
2023-04-10T10:22:43.033Z,100871.81
2023-04-10T10:25:46.169Z,100873.13
2023-04-10T10:28:48.549Z,100875.41
2023-04-10T10:31:51.015Z,100873.22
2023-04-10T10:34:53.666Z,100864.97
2023-04-10T10:37:55.595Z,100862.47
2023-04-10T10:41:09.047Z,100849.41
2023-04-10T10:44:23.176Z,100854.75
2023-04-10T10:47:29.313Z,100860.28
2023-04-10T10:50:53.567Z,100836.38
2023-04-10T10:53:55.749Z,100830.53
2023-04-10T10:56:57.342Z,100824.94
2023-04-10T10:59:58.790Z,100828.31
2023-04-10T11:03:20.686Z,100817.31
2023-04-10T11:06:50.145Z,100814.53
2023-04-10T11:09:55.160Z,100805.09
2023-04-10T11:13:17.663Z,100809.66
2023-04-10T11:16:21.207Z,100805.72
2023-04-10T11:19:25.723Z,100810.91
2023-04-10T11:22:27.913Z,100804.63
2023-04-10T11:25:54.072Z,100805.78
2023-04-10T11:28:56.719Z,100791.09
2023-04-10T11:32:04.267Z,100780.97
2023-04-10T11:35:09.113Z,100764.34
2023-04-10T11:38:16.172Z,100765.69
2023-04-10T11:41:18.005Z,100757.09
2023-04-10T11:44:26.745Z,100754.25
2023-04-10T11:47:28.407Z,100750.41
2023-04-10T11:50:32.169Z,100742.56
2023-04-10T11:53:34.120Z,100744.28
2023-04-10T11:56:37.948Z,100739.16
2023-04-10T11:59:39.349Z,100738.56
2023-04-10T12:02:52.548Z,100725.19
2023-04-10T12:05:54.556Z,100722.28
2023-04-10T12:08:56.816Z,100721.53
2023-04-10T12:12:04.075Z,100708.72
2023-04-10T12:15:26.317Z,100709.00
2023-04-10T12:18:29.703Z,100707.50
2023-04-10T12:21:32.679Z,100695.00
2023-04-10T12:24:50.646Z,100687.91
2023-04-10T12:27:52.925Z,100684.78
2023-04-10T12:30:55.230Z,100678.84
2023-04-10T12:33:58.114Z,100677.59
2023-04-10T12:36:59.940Z,100676.50
2023-04-10T12:40:07.966Z,100674.03
2023-04-10T12:43:10.222Z,100666.84
2023-04-10T12:46:26.410Z,100662.78
2023-04-10T12:49:28.449Z,100654.16
2023-04-10T12:52:30.443Z,100650.13
2023-04-10T12:55:32.823Z,100643.81
2023-04-10T12:58:34.279Z,100634.41
2023-04-10T13:01:39.671Z,100639.41
2023-04-10T13:04:42.628Z,100638.97
2023-04-10T13:07:47.405Z,100630.16
2023-04-10T13:10:49.457Z,100623.88
2023-04-10T13:13:52.589Z,100622.16
2023-04-10T13:16:54.363Z,100626.69
2023-04-10T13:19:56.332Z,100609.31
2023-04-10T13:22:58.206Z,100613.69
2023-04-10T13:26:00.194Z,100609.88
2023-04-10T13:29:02.176Z,100606.09
2023-04-10T13:32:05.479Z,100603.22
2023-04-10T13:35:07.153Z,100586.25
2023-04-10T13:38:11.980Z,100586.53
2023-04-10T13:41:13.395Z,100581.06
2023-04-10T13:44:15.152Z,100568.66
2023-04-10T13:47:17.032Z,100571.53
2023-04-10T13:50:19.406Z,100567.28
2023-04-10T13:53:20.926Z,100564.91
2023-04-10T13:56:22.736Z,100550.31
2023-04-10T13:59:24.716Z,100546.50
2023-04-10T14:02:26.692Z,100541.41
2023-04-10T14:05:28.724Z,100535.25
2023-04-10T14:08:30.742Z,100533.03
2023-04-10T14:11:32.558Z,100526.53
2023-04-10T14:14:34.866Z,100528.66
2023-04-10T14:17:36.279Z,100532.13
2023-04-10T14:20:38.937Z,100529.72
2023-04-10T14:23:41.340Z,100521.69
2023-04-10T14:26:43.201Z,100516.84
2023-04-10T14:29:54.349Z,100511.72
2023-04-10T14:32:57.348Z,100509.38
2023-04-10T14:35:59.248Z,100504.00
2023-04-10T14:39:00.976Z,100494.78
2023-04-10T14:42:03.011Z,100498.94
2023-04-10T14:45:06.116Z,100497.22
2023-04-10T14:48:09.885Z,100485.66
2023-04-10T14:51:12.837Z,100484.94
2023-04-10T14:54:15.810Z,100480.28
2023-04-10T14:57:17.566Z,100480.69
2023-04-10T15:00:19.693Z,100478.88
2023-04-10T15:03:24.457Z,100471.94
2023-04-10T15:06:28.114Z,100466.59
2023-04-10T15:09:30.033Z,100451.13
2023-04-10T15:12:31.847Z,100448.38
2023-04-10T15:15:33.566Z,100441.09
2023-04-10T15:18:35.167Z,100427.06
2023-04-10T15:21:36.957Z,100425.31
2023-04-10T15:24:49.917Z,100425.06
2023-04-10T15:27:55.215Z,100417.06
2023-04-10T15:30:57.758Z,100417.28
2023-04-10T15:33:59.626Z,100414.31
2023-04-10T15:37:01.350Z,100413.06
2023-04-10T15:40:04.512Z,100404.19
2023-04-10T15:43:06.288Z,100410.50
2023-04-10T15:46:08.227Z,100408.06
2023-04-10T15:49:09.951Z,100402.13
2023-04-10T15:52:11.669Z,100398.94
2023-04-10T15:55:14.827Z,100402.13
2023-04-10T15:58:16.280Z,100399.34
2023-04-10T16:01:18.045Z,100400.84
2023-04-10T16:04:20.309Z,100395.63
2023-04-10T16:07:22.076Z,100397.44
2023-04-10T16:10:23.816Z,100374.34
2023-04-10T16:13:25.762Z,100359.56
2023-04-10T16:16:29.292Z,100362.69
2023-04-10T16:19:31.508Z,100353.91
2023-04-10T16:22:33.256Z,100348.69
2023-04-10T16:25:34.645Z,100341.31
2023-04-10T16:28:36.346Z,100344.28
2023-04-10T16:31:38.090Z,100347.19
2023-04-10T16:34:39.886Z,100343.56
2023-04-10T16:37:41.621Z,100349.88
2023-04-10T16:40:43.023Z,100346.34
2023-04-10T16:43:44.786Z,100344.00
2023-04-10T16:46:46.920Z,100357.53
2023-04-10T16:49:48.531Z,100360.00
2023-04-10T16:52:50.029Z,100356.25
2023-04-10T16:55:58.538Z,100348.88
2023-04-10T16:59:00.578Z,100347.38
2023-04-10T17:02:02.324Z,100350.13
2023-04-10T17:05:04.146Z,100348.50
2023-04-10T17:08:06.363Z,100340.97
2023-04-10T17:11:08.132Z,100335.09
2023-04-10T17:14:10.480Z,100337.44
2023-04-10T17:17:13.020Z,100325.22
2023-04-10T17:20:15.011Z,100316.72
2023-04-10T17:23:16.773Z,100326.50
2023-04-10T17:26:19.054Z,100318.16
2023-04-10T17:29:20.900Z,100308.94
2023-04-10T17:32:22.597Z,100315.13
2023-04-10T17:35:25.639Z,100306.41
2023-04-10T17:41:28.936Z,100306.50
2023-04-10T17:44:30.688Z,100302.06
2023-04-10T17:47:32.551Z,100278.97
2023-04-10T17:50:35.047Z,100275.94
2023-04-10T17:53:36.841Z,100258.91
2023-04-10T17:56:38.494Z,100248.34
2023-04-10T17:59:39.890Z,100268.22
2023-04-10T18:02:42.889Z,100274.06
2023-04-10T18:05:44.726Z,100261.53
2023-04-10T18:08:46.442Z,100282.28
2023-04-10T18:11:50.382Z,100289.50
2023-04-10T18:14:51.758Z,100286.91
2023-04-10T18:17:54.101Z,100296.94
2023-04-10T18:20:55.929Z,100299.78
2023-04-10T18:23:57.652Z,100303.56
2023-04-10T18:26:59.360Z,100309.97
2023-04-10T18:30:01.549Z,100315.47
2023-04-10T18:33:05.440Z,100312.16
2023-04-10T18:36:08.362Z,100315.09
2023-04-10T18:39:10.713Z,100303.97
2023-04-10T18:42:12.427Z,100284.38
2023-04-10T18:45:14.241Z,100294.34
2023-04-10T18:48:16.366Z,100298.16
2023-04-10T18:51:17.957Z,100299.19
2023-04-10T18:54:19.706Z,100296.88
2023-04-10T18:57:21.389Z,100298.03
2023-04-10T19:00:22.902Z,100286.72
2023-04-10T19:03:24.806Z,100295.00
2023-04-10T19:06:26.755Z,100309.25
2023-04-10T19:09:28.569Z,100307.53
2023-04-10T19:12:30.089Z,100321.78
2023-04-10T19:15:31.499Z,100318.19
2023-04-10T19:18:33.290Z,100322.72
2023-04-10T19:21:35.069Z,100325.50
2023-04-10T19:24:36.880Z,100331.91
2023-04-10T19:27:38.725Z,100341.22
2023-04-10T19:30:40.525Z,100329.22
2023-04-10T19:33:42.040Z,100312.81
2023-04-10T19:36:43.816Z,100308.72
2023-04-10T19:39:45.294Z,100300.94
2023-04-10T19:42:47.016Z,100299.38
2023-04-10T19:45:48.773Z,100302.38
2023-04-10T19:48:51.758Z,100300.59
2023-04-10T19:51:53.578Z,100306.03
2023-04-10T19:54:55.007Z,100304.38
2023-04-10T19:57:56.792Z,100303.72
2023-04-10T20:01:03.391Z,100300.28
2023-04-10T20:04:05.269Z,100295.91
2023-04-10T20:07:07.161Z,100288.13
2023-04-10T20:10:09.257Z,100282.38
2023-04-10T20:13:11.347Z,100281.63
2023-04-10T20:16:13.098Z,100271.00
2023-04-10T20:19:15.072Z,100262.81
2023-04-10T20:22:16.824Z,100265.13
2023-04-10T20:25:18.538Z,100260.00
2023-04-10T20:28:20.450Z,100254.69
2023-04-10T20:31:22.524Z,100245.94
2023-04-10T20:34:24.751Z,100242.69
2023-04-10T20:37:26.192Z,100241.47
2023-04-10T20:40:27.902Z,100240.69
2023-04-10T20:43:29.361Z,100242.69
2023-04-10T20:46:31.261Z,100238.03
2023-04-10T20:49:32.888Z,100228.44
2023-04-10T20:52:34.605Z,100229.47
2023-04-10T20:55:39.704Z,100216.69
2023-04-10T20:58:41.151Z,100203.47
2023-04-10T21:01:42.998Z,100206.56
2023-04-10T21:04:44.724Z,100211.88
2023-04-10T21:07:46.425Z,100214.38
2023-04-10T21:10:48.123Z,100217.13
2023-04-10T21:13:49.845Z,100212.66
2023-04-10T21:16:51.576Z,100230.34
2023-04-10T21:19:53.331Z,100224.50
2023-04-10T21:22:55.292Z,100212.28
2023-04-10T21:25:57.003Z,100224.00
2023-04-10T21:28:58.738Z,100233.53
2023-04-10T21:32:00.605Z,100228.56
2023-04-10T21:35:02.354Z,100203.94
2023-04-10T21:38:04.473Z,100189.81
2023-04-10T21:41:06.211Z,100193.50
2023-04-10T21:44:07.974Z,100196.06
2023-04-10T21:47:09.712Z,100199.44
2023-04-10T21:50:11.512Z,100186.50
2023-04-10T21:53:13.322Z,100181.19
2023-04-10T21:56:15.650Z,100177.59
2023-04-10T21:59:17.818Z,100163.47
2023-04-10T22:02:19.262Z,100129.94
2023-04-10T22:05:21.134Z,100098.22
2023-04-10T22:08:22.901Z,100118.19
2023-04-10T22:11:24.681Z,100107.88
2023-04-10T22:14:26.614Z,100095.25
2023-04-10T22:17:28.403Z,100091.72
2023-04-10T22:20:30.618Z,100096.31
2023-04-10T22:23:32.077Z,100084.34
2023-04-10T22:26:34.810Z,100081.09
2023-04-10T22:29:36.624Z,100084.53
2023-04-10T22:32:38.403Z,100075.41
2023-04-10T22:35:40.916Z,100061.63
2023-04-10T22:38:42.301Z,100064.81
2023-04-10T22:41:43.960Z,100060.34
2023-04-10T22:44:46.704Z,100093.63
2023-04-10T22:47:48.084Z,100084.84
2023-04-10T22:50:49.748Z,100103.03
2023-04-10T22:53:51.398Z,100097.91
2023-04-10T22:56:53.073Z,100094.78
2023-04-10T22:59:55.291Z,100107.47
2023-04-10T23:02:56.794Z,100099.78
2023-04-10T23:05:58.502Z,100116.94
2023-04-10T23:09:00.185Z,100134.84
2023-04-10T23:12:01.938Z,100148.28
2023-04-10T23:15:05.480Z,100140.13
2023-04-10T23:18:07.199Z,100134.13
2023-04-10T23:21:08.936Z,100144.25
2023-04-10T23:24:10.593Z,100155.09
2023-04-10T23:27:12.260Z,100166.72
2023-04-10T23:30:14.239Z,100168.13
2023-04-10T23:33:15.782Z,100148.03
2023-04-10T23:36:17.719Z,100136.09
2023-04-10T23:39:20.199Z,100124.47
2023-04-10T23:42:21.872Z,100119.09
2023-04-10T23:45:23.882Z,100100.28
2023-04-10T23:48:25.409Z,100087.19
2023-04-10T23:51:27.884Z,100076.75
2023-04-10T23:54:29.618Z,100076.13
2023-04-10T23:57:31.302Z,100067.78
